Time;durP1;ratioP1;P1;durP2;ratioP2;P2;SDS_P1;SDS_P2;PMS_P1;PMS_P2;Temp;Humidity;BMP_temperature;BMP_pressure;BME280_temperature;BME280_humidity;BME280_pressure;Samples;Min_cycle;Max_cycle;Signal;HPM_P1;HPM_P2
2020/12/01 00:01:47;;;;;;;93.77;46.50;;;-1.20;92.00;;;;;;5034503;28;20292;-83
2020/12/01 00:04:15;;;;;;;93.50;45.57;;;-1.20;92.00;;;;;;5034150;28;20191;-83
2020/12/01 00:06:45;;;;;;;95.00;46.53;;;-1.20;91.90;;;;;;5035798;28;20194;-83
2020/12/01 00:09:13;;;;;;;92.97;47.50;;;-1.10;92.00;;;;;;5034090;28;20211;-82
2020/12/01 00:11:41;;;;;;;91.73;47.07;;;-1.10;91.90;;;;;;5020274;28;20359;-82
2020/12/01 00:14:09;;;;;;;92.80;45.97;;;-1.10;91.90;;;;;;5023858;28;20216;-85
2020/12/01 00:16:37;;;;;;;98.90;47.97;;;-1.10;91.90;;;;;;5041403;22;20242;-83
2020/12/01 00:19:05;;;;;;;92.97;47.27;;;-1.00;91.90;;;;;;5027343;28;20323;-83
2020/12/01 00:21:37;;;;;;;92.43;47.67;;;-1.00;91.90;;;;;;5019098;28;20207;-86
2020/12/01 00:24:08;;;;;;;100.80;48.77;;;-1.00;91.90;;;;;;5189933;22;20239;-82
2020/12/01 00:26:42;;;;;;;88.40;47.07;;;-1.00;91.90;;;;;;5035301;28;20716;-84
2020/12/01 00:29:17;;;;;;;89.97;47.37;;;-1.00;91.80;;;;;;5038741;28;20194;-82
2020/12/01 00:31:49;;;;;;;89.30;46.93;;;-1.10;91.80;;;;;;5036435;28;20194;-83
2020/12/01 00:34:35;;;;;;;96.90;52.23;;;-1.10;91.70;;;;;;5034765;28;20354;-85
2020/12/01 00:37:10;;;;;;;93.40;46.83;;;-1.10;91.80;;;;;;5041482;28;20207;-83
2020/12/01 00:39:56;;;;;;;97.57;47.90;;;-1.10;91.80;;;;;;5038305;28;20191;-84
2020/12/01 00:45:30;;;;;;;104.13;50.10;;;-1.00;91.90;;;;;;5043133;28;20206;-83
2020/12/01 00:48:16;;;;;;;102.07;50.60;;;-1.00;91.90;;;;;;5035983;28;20206;-83
2020/12/01 00:50:45;;;;;;;103.57;50.30;;;-1.00;91.90;;;;;;5029538;28;20283;-82
2020/12/01 00:53:17;;;;;;;100.57;47.47;;;-1.00;91.80;;;;;;5035745;28;20238;-83
2020/12/01 00:55:50;;;;;;;98.97;48.93;;;-0.90;91.90;;;;;;5035097;28;20205;-84
2020/12/01 00:58:25;;;;;;;100.10;48.93;;;-0.80;91.90;;;;;;5035924;28;20262;-81
2020/12/01 01:00:56;;;;;;;93.97;49.87;;;-0.90;91.80;;;;;;5038043;28;20257;-81
2020/12/01 01:03:24;;;;;;;99.73;49.13;;;-0.90;91.80;;;;;;5035158;28;20202;-82
2020/12/01 01:05:52;;;;;;;95.53;48.77;;;-0.90;91.80;;;;;;5023211;28;20196;-83
2020/12/01 01:08:21;;;;;;;99.03;48.33;;;-0.80;91.90;;;;;;5020953;28;20200;-82
2020/12/01 01:10:53;;;;;;;96.13;49.17;;;-0.80;91.80;;;;;;5030942;28;20252;-81
2020/12/01 01:13:21;;;;;;;95.67;49.07;;;-0.80;91.80;;;;;;5024801;28;20219;-82
2020/12/01 01:15:49;;;;;;;98.23;50.13;;;-0.80;91.80;;;;;;5018305;28;20199;-81
2020/12/01 01:18:20;;;;;;;102.23;47.97;;;-0.70;91.80;;;;;;5033838;28;20244;-81
2020/12/01 01:20:48;;;;;;;90.00;47.17;;;-0.80;91.80;;;;;;5042071;28;20283;-83
2020/12/01 01:23:19;;;;;;;97.63;48.90;;;-0.80;91.70;;;;;;5022739;28;20212;-81
2020/12/01 01:25:52;;;;;;;95.03;49.63;;;-0.80;91.70;;;;;;5039234;28;20219;-83
2020/12/01 01:28:19;;;;;;;99.90;48.47;;;-0.80;91.70;;;;;;5020044;28;20282;-83
2020/12/01 01:30:48;;;;;;;97.00;48.27;;;-0.90;91.70;;;;;;5017149;28;20630;-80
2020/12/01 01:33:15;;;;;;;95.17;48.00;;;-0.90;91.70;;;;;;5020099;28;20282;-80
2020/12/01 01:35:44;;;;;;;91.73;47.87;;;-0.90;91.70;;;;;;5024717;28;20191;-80
2020/12/01 01:38:12;;;;;;;97.57;49.63;;;-0.90;91.70;;;;;;5025352;28;20228;-81
2020/12/01 01:40:40;;;;;;;102.37;49.97;;;-0.90;91.70;;;;;;5027985;28;20221;-81
2020/12/01 01:43:11;;;;;;;101.27;50.70;;;-0.90;91.80;;;;;;5032349;28;20200;-80
2020/12/01 01:45:42;;;;;;;101.20;48.93;;;-0.80;91.80;;;;;;5031162;28;20214;-82
2020/12/01 01:48:20;;;;;;;99.97;50.53;;;-0.90;91.80;;;;;;5027225;28;20256;-82
2020/12/01 01:50:55;;;;;;;96.57;46.57;;;-0.90;91.80;;;;;;5028871;28;20280;-82
2020/12/01 01:53:23;;;;;;;94.53;49.90;;;-0.80;91.80;;;;;;5017074;28;20198;-82
2020/12/01 01:55:58;;;;;;;102.90;50.97;;;-0.80;91.80;;;;;;5027208;28;20285;-83
2020/12/01 01:58:34;;;;;;;90.97;47.63;;;-0.80;91.90;;;;;;5032284;28;20249;-81
2020/12/01 02:01:05;;;;;;;96.10;48.53;;;-0.80;91.80;;;;;;5023295;28;20225;-83
2020/12/01 02:03:38;;;;;;;91.47;48.13;;;-0.90;91.80;;;;;;5027555;28;20195;-82
2020/12/01 02:06:14;;;;;;;88.93;46.07;;;-0.70;91.80;;;;;;5032525;28;20511;-82
2020/12/01 02:08:43;;;;;;;89.67;45.73;;;-0.70;91.80;;;;;;5029539;28;20230;-81
2020/12/01 02:11:12;;;;;;;91.87;44.63;;;-0.70;91.80;;;;;;5023999;28;20226;-82
2020/12/01 02:13:46;;;;;;;86.60;45.23;;;-0.70;91.80;;;;;;5032511;28;20203;-80
2020/12/01 02:16:14;;;;;;;91.43;47.87;;;-0.60;91.80;;;;;;5021563;28;20210;-81
2020/12/01 02:18:42;;;;;;;94.87;47.33;;;-0.50;91.90;;;;;;5024050;28;20666;-83
2020/12/01 02:21:27;;;;;;;94.53;46.33;;;-0.60;91.80;;;;;;5022777;28;20742;-81
2020/12/01 02:23:57;;;;;;;92.17;43.50;;;-0.60;91.90;;;;;;5016085;28;20215;-82
2020/12/01 02:26:26;;;;;;;91.70;46.73;;;-0.50;91.90;;;;;;5018151;28;20274;-82
2020/12/01 02:28:54;;;;;;;89.63;46.43;;;-0.60;91.80;;;;;;5024465;28;20235;-81
2020/12/01 02:31:21;;;;;;;94.30;48.40;;;-0.50;91.90;;;;;;5017748;28;20210;-81
2020/12/01 02:33:49;;;;;;;95.27;46.97;;;-0.50;91.90;;;;;;5019666;28;20203;-80
2020/12/01 02:36:17;;;;;;;91.03;46.00;;;-0.50;91.90;;;;;;5021410;28;20200;-83
2020/12/01 02:38:45;;;;;;;98.87;46.03;;;-0.50;91.90;;;;;;5026241;28;20270;-82
2020/12/01 02:41:12;;;;;;;98.40;46.80;;;-0.50;91.90;;;;;;5025716;28;20224;-83
2020/12/01 02:43:41;;;;;;;94.60;46.30;;;-0.50;91.90;;;;;;5019818;28;20667;-81
2020/12/01 02:46:09;;;;;;;98.93;45.23;;;-0.50;91.90;;;;;;5026485;28;20213;-82
2020/12/01 02:48:36;;;;;;;95.83;45.27;;;-0.50;91.90;;;;;;5028177;28;20202;-81
2020/12/01 02:51:04;;;;;;;111.73;49.87;;;-0.50;91.90;;;;;;5021310;28;20714;-81
2020/12/01 02:53:31;;;;;;;101.33;48.37;;;-0.40;92.00;;;;;;5020684;28;20457;-82
2020/12/01 02:56:00;;;;;;;107.87;49.30;;;-0.40;92.00;;;;;;5013809;28;20328;-83
2020/12/01 02:58:27;;;;;;;104.67;49.63;;;-0.40;92.10;;;;;;5018359;28;20215;-82
2020/12/01 03:00:57;;;;;;;108.27;49.97;;;-0.40;92.10;;;;;;5016649;28;20496;-82
2020/12/01 03:03:24;;;;;;;103.83;48.63;;;-0.40;92.10;;;;;;5021739;28;20964;-83
2020/12/01 03:05:52;;;;;;;99.60;48.53;;;-0.40;92.10;;;;;;5028709;28;20885;-83
2020/12/01 03:08:20;;;;;;;107.93;49.97;;;-0.30;92.20;;;;;;5018286;28;20283;-81
2020/12/01 03:10:47;;;;;;;106.67;50.20;;;-0.30;92.20;;;;;;5019976;28;20212;-83
2020/12/01 03:13:15;;;;;;;105.83;50.77;;;-0.20;92.20;;;;;;5023154;28;20200;-82
2020/12/01 03:15:43;;;;;;;103.93;49.73;;;-0.20;92.20;;;;;;5019708;28;20262;-85
2020/12/01 03:18:12;;;;;;;106.77;49.40;;;-0.20;92.20;;;;;;5027308;28;20208;-84
2020/12/01 03:20:42;;;;;;;102.40;50.20;;;-0.20;92.20;;;;;;5030061;28;20203;-80
2020/12/01 03:23:10;;;;;;;113.30;49.10;;;-0.20;92.20;;;;;;5029061;28;20228;-81
2020/12/01 03:25:37;;;;;;;106.07;49.10;;;-0.20;92.20;;;;;;5028532;28;20209;-81
2020/12/01 03:28:06;;;;;;;105.30;49.20;;;-0.10;92.20;;;;;;5023988;28;20225;-81
2020/12/01 03:30:36;;;;;;;105.17;50.40;;;-0.10;92.20;;;;;;5021483;28;20681;-83
2020/12/01 03:33:04;;;;;;;107.73;50.47;;;-0.10;92.20;;;;;;5029563;28;20197;-87
2020/12/01 03:35:36;;;;;;;106.70;48.27;;;0.00;92.20;;;;;;5032023;28;20196;-82
2020/12/01 03:38:04;;;;;;;107.40;49.20;;;0.00;92.20;;;;;;5035803;28;20265;-80
2020/12/01 03:40:32;;;;;;;111.17;49.60;;;-0.10;92.20;;;;;;5022645;28;20230;-81
2020/12/01 03:43:00;;;;;;;112.20;50.30;;;0.00;92.20;;;;;;5013671;28;20217;-82
2020/12/01 03:45:28;;;;;;;105.30;48.90;;;-0.10;92.20;;;;;;5014523;28;20224;-82
2020/12/01 03:47:56;;;;;;;108.20;49.60;;;-0.10;92.20;;;;;;5025115;28;20224;-81
2020/12/01 03:50:25;;;;;;;105.47;49.17;;;-0.10;92.20;;;;;;5021564;28;20214;-83
2020/12/01 03:52:54;;;;;;;105.03;49.73;;;-0.10;92.20;;;;;;5011333;28;20227;-82
2020/12/01 03:55:24;;;;;;;114.33;48.83;;;-0.10;92.20;;;;;;5019990;28;20871;-82
2020/12/01 03:57:53;;;;;;;104.90;47.97;;;-0.10;92.20;;;;;;5017823;28;20216;-81
2020/12/01 04:00:24;;;;;;;98.93;45.40;;;-0.20;92.10;;;;;;5022737;28;20189;-80
2020/12/01 04:02:53;;;;;;;105.97;48.63;;;-0.30;92.10;;;;;;5029622;28;20705;-82
2020/12/01 04:05:23;;;;;;;109.03;49.13;;;-0.30;92.10;;;;;;5035469;28;20195;-82
2020/12/01 04:07:52;;;;;;;105.90;46.83;;;-0.40;92.10;;;;;;5021686;28;20654;-80
2020/12/01 04:10:23;;;;;;;101.87;47.17;;;-0.50;92.10;;;;;;5033358;28;20203;-82
2020/12/01 04:12:52;;;;;;;109.10;48.43;;;-0.60;92.10;;;;;;5029247;28;20199;-83
2020/12/01 04:15:21;;;;;;;106.50;48.83;;;-0.60;92.10;;;;;;5029022;28;20214;-82
2020/12/01 04:17:49;;;;;;;111.60;48.53;;;-0.60;92.20;;;;;;5017935;28;20203;-82
2020/12/01 04:20:17;;;;;;;116.73;49.00;;;-0.60;92.20;;;;;;5031036;28;20266;-82
2020/12/01 04:22:46;;;;;;;109.73;49.57;;;-0.60;92.20;;;;;;5016913;28;20423;-83
2020/12/01 04:25:17;;;;;;;108.63;49.93;;;-0.50;92.20;;;;;;5025766;28;20196;-82
2020/12/01 04:27:46;;;;;;;115.83;49.63;;;-0.70;92.20;;;;;;5017988;28;20295;-81
2020/12/01 04:30:14;;;;;;;113.50;48.70;;;-0.70;92.20;;;;;;5014426;28;20257;-82
2020/12/01 04:32:42;;;;;;;115.67;52.93;;;-0.70;92.20;;;;;;5023823;28;20199;-82
2020/12/01 04:35:10;;;;;;;111.33;48.57;;;-0.80;92.20;;;;;;5019052;28;20417;-81
2020/12/01 04:37:38;;;;;;;111.83;49.37;;;-0.80;92.20;;;;;;5012413;28;20211;-83
2020/12/01 04:40:07;;;;;;;106.07;48.83;;;-0.80;92.20;;;;;;5030374;28;20209;-82
2020/12/01 04:42:48;;;;;;;110.10;47.93;;;-0.80;92.20;;;;;;5023783;28;20966;-83
2020/12/01 04:45:15;;;;;;;115.47;53.40;;;-0.80;92.20;;;;;;5019683;28;20199;-80
2020/12/01 04:47:54;;;;;;;111.60;49.27;;;-0.80;92.20;;;;;;5011623;28;20201;-82
2020/12/01 04:50:30;;;;;;;111.70;49.30;;;-0.70;92.20;;;;;;5024669;28;20206;-81
2020/12/01 04:53:18;;;;;;;112.83;51.10;;;-0.70;92.20;;;;;;5020791;28;20195;-82
2020/12/01 04:56:04;;;;;;;112.33;50.27;;;-0.70;92.20;;;;;;4999044;28;20223;-81
2020/12/01 04:58:56;;;;;;;110.23;50.10;;;-0.70;92.20;;;;;;5028872;28;20272;-83
2020/12/01 05:02:08;;;;;;;106.00;48.97;;;-0.70;92.20;;;;;;5033459;28;20205;-83
2020/12/01 05:04:47;;;;;;;112.70;49.30;;;-0.70;92.20;;;;;;5031006;28;20237;-82
2020/12/01 05:07:30;;;;;;;107.77;51.03;;;-0.70;92.20;;;;;;5027647;28;20260;-81
2020/12/01 05:10:09;;;;;;;105.90;50.40;;;-0.70;92.20;;;;;;5020977;28;20227;-81
2020/12/01 05:12:45;;;;;;;108.77;49.97;;;-0.70;92.20;;;;;;5011350;28;20219;-81
2020/12/01 05:15:17;;;;;;;112.23;51.87;;;-0.70;92.20;;;;;;5019893;28;20202;-81
2020/12/01 05:18:02;;;;;;;103.57;51.03;;;-0.80;92.20;;;;;;5020699;28;20219;-82
2020/12/01 05:20:30;;;;;;;111.80;51.97;;;-0.80;92.20;;;;;;5013985;28;20917;-82
2020/12/01 05:23:01;;;;;;;111.57;51.20;;;-0.80;92.20;;;;;;5018342;28;20230;-81
2020/12/01 05:25:30;;;;;;;110.93;51.30;;;-0.80;92.20;;;;;;5029424;28;20194;-81
2020/12/01 05:28:08;;;;;;;109.53;50.97;;;-0.70;92.20;;;;;;5009580;28;20214;-80
2020/12/01 05:30:38;;;;;;;105.47;49.90;;;-0.90;92.10;;;;;;5018436;28;20410;-82
2020/12/01 05:33:17;;;;;;;110.03;52.00;;;-0.90;92.10;;;;;;5012629;28;20645;-86
2020/12/01 05:35:57;;;;;;;111.70;50.63;;;-1.00;92.10;;;;;;5025818;28;20650;-82
2020/12/01 05:38:26;;;;;;;104.70;50.53;;;-1.00;92.10;;;;;;5018721;28;20203;-82
2020/12/01 05:40:56;;;;;;;107.90;51.43;;;-1.00;92.10;;;;;;5015677;28;20236;-82
2020/12/01 05:43:30;;;;;;;107.80;49.53;;;-1.00;92.10;;;;;;5017912;28;20309;-81
2020/12/01 05:46:09;;;;;;;106.00;50.07;;;-1.10;92.10;;;;;;5026152;28;20667;-81
2020/12/01 05:48:47;;;;;;;96.87;48.27;;;-0.90;92.10;;;;;;5014468;28;20654;-82
2020/12/01 05:51:25;;;;;;;108.73;49.07;;;-1.00;92.10;;;;;;5030535;28;20224;-80
2020/12/01 05:53:58;;;;;;;101.70;50.90;;;-0.90;92.10;;;;;;5021510;28;20233;-84
2020/12/01 05:56:28;;;;;;;96.77;47.57;;;-0.90;92.10;;;;;;5018604;28;20422;-81
2020/12/01 05:59:00;;;;;;;102.07;51.07;;;-0.90;92.10;;;;;;5027467;28;20291;-82
2020/12/01 06:01:40;;;;;;;102.23;48.57;;;-0.90;92.10;;;;;;5037857;28;20471;-83
2020/12/01 06:04:13;;;;;;;101.03;47.50;;;-0.90;92.10;;;;;;5039814;28;20210;-80
2020/12/01 06:07:03;;;;;;;97.83;47.43;;;-1.00;92.00;;;;;;5034768;28;20190;-81
2020/12/01 06:09:45;;;;;;;104.50;50.70;;;-1.00;92.00;;;;;;5037624;28;20216;-82
2020/12/01 06:12:21;;;;;;;101.63;49.23;;;-1.00;92.00;;;;;;5032704;28;20199;-83
2020/12/01 06:14:56;;;;;;;95.03;45.70;;;-0.90;92.00;;;;;;5034061;28;20194;-83
2020/12/01 06:17:36;;;;;;;97.23;46.87;;;-1.10;92.00;;;;;;5034774;28;20192;-83
2020/12/01 06:20:15;;;;;;;94.73;45.87;;;-1.10;92.00;;;;;;5027378;28;20210;-81
2020/12/01 06:23:27;;;;;;;97.23;46.10;;;-1.10;92.00;;;;;;5035987;28;20218;-83
2020/12/01 06:26:14;;;;;;;103.00;48.30;;;-1.10;92.00;;;;;;5034708;28;20212;-84
2020/12/01 06:29:06;;;;;;;95.47;47.13;;;-1.20;91.90;;;;;;5027324;28;20194;-81
2020/12/01 06:32:13;;;;;;;96.33;46.37;;;-1.20;91.90;;;;;;5013619;28;20209;-81
2020/12/01 06:35:19;;;;;;;95.20;46.67;;;-1.20;91.90;;;;;;5010020;28;20212;-80
2020/12/01 06:38:07;;;;;;;90.37;44.80;;;-1.30;91.90;;;;;;5019245;28;20217;-79
2020/12/01 06:40:39;;;;;;;97.23;46.43;;;-1.30;91.90;;;;;;5020923;28;20211;-79
2020/12/01 06:43:15;;;;;;;97.20;46.10;;;-1.30;91.90;;;;;;5008762;28;20293;-79
2020/12/01 06:45:44;;;;;;;93.00;44.87;;;-1.40;92.00;;;;;;5018045;28;20202;-79
2020/12/01 06:48:17;;;;;;;93.90;44.93;;;-1.30;91.90;;;;;;5011625;28;20210;-78
2020/12/01 06:50:50;;;;;;;92.90;47.40;;;-1.30;91.90;;;;;;5020052;28;20216;-79
2020/12/01 06:53:27;;;;;;;91.73;44.63;;;-1.30;91.90;;;;;;5019794;28;20432;-79
2020/12/01 06:55:56;;;;;;;89.80;45.10;;;-1.40;91.90;;;;;;5019994;28;20253;-79
2020/12/01 06:58:37;;;;;;;92.27;44.60;;;-1.30;91.90;;;;;;5021757;28;20214;-80
2020/12/01 07:01:27;;;;;;;92.63;45.97;;;-1.30;91.90;;;;;;5017135;28;20218;-80
2020/12/01 07:04:06;;;;;;;90.17;42.93;;;-1.30;91.90;;;;;;5019024;28;20210;-80
2020/12/01 07:06:45;;;;;;;84.00;42.53;;;-1.30;91.90;;;;;;5020787;28;20289;-78
2020/12/01 07:09:16;;;;;;;83.77;43.37;;;-1.30;91.90;;;;;;5015534;28;20212;-79
2020/12/01 07:11:57;;;;;;;91.43;46.63;;;-1.30;91.90;;;;;;5018549;28;20202;-79
2020/12/01 07:14:35;;;;;;;83.20;43.53;;;-1.20;91.90;;;;;;5008068;28;20645;-79
2020/12/01 07:17:16;;;;;;;88.23;43.77;;;-1.20;91.90;;;;;;5011298;28;20695;-83
2020/12/01 07:19:50;;;;;;;83.47;44.13;;;-1.10;91.90;;;;;;5012737;28;20207;-81
2020/12/01 07:22:30;;;;;;;86.67;44.90;;;-1.10;91.90;;;;;;5002860;28;20229;-79
2020/12/01 07:25:10;;;;;;;90.43;42.70;;;-1.00;91.80;;;;;;5009264;28;20203;-79
2020/12/01 07:27:51;;;;;;;81.87;41.67;;;-0.90;91.80;;;;;;5002412;28;20211;-79
2020/12/01 07:30:23;;;;;;;80.67;41.13;;;-1.00;91.70;;;;;;5002191;28;20279;-81
2020/12/01 07:33:03;;;;;;;81.00;40.70;;;-0.80;91.70;;;;;;5005450;28;20203;-77
2020/12/01 07:35:36;;;;;;;72.87;39.43;;;-0.80;91.70;;;;;;5006144;28;20210;-78
2020/12/01 07:38:20;;;;;;;79.93;40.50;;;-0.70;91.50;;;;;;5000199;28;20327;-76
2020/12/01 07:41:22;;;;;;;79.07;40.57;;;-0.70;91.40;;;;;;5005029;28;20958;-79
2020/12/01 07:44:05;;;;;;;80.47;41.10;;;-0.80;91.30;;;;;;5002732;28;20240;-78
2020/12/01 07:46:46;;;;;;;77.23;37.87;;;-0.80;91.30;;;;;;5006883;28;20297;-76
2020/12/01 07:49:14;;;;;;;70.20;37.93;;;-0.80;91.30;;;;;;5002417;28;20201;-80
2020/12/01 07:51:42;;;;;;;78.80;38.90;;;-0.80;91.30;;;;;;5012688;28;20203;-78
2020/12/01 07:54:17;;;;;;;65.57;36.33;;;-0.80;91.30;;;;;;5024592;28;20759;-78
2020/12/01 07:56:45;;;;;;;69.63;38.43;;;-0.80;91.30;;;;;;5012188;28;20823;-77
2020/12/01 07:59:13;;;;;;;74.07;38.40;;;-0.80;91.30;;;;;;5006111;28;20199;-82
2020/12/01 08:01:46;;;;;;;68.50;36.43;;;-0.80;91.30;;;;;;5011482;28;20281;-77
2020/12/01 08:04:16;;;;;;;73.83;38.57;;;-0.80;91.30;;;;;;5012640;28;20226;-80
2020/12/01 08:06:44;;;;;;;64.93;35.77;;;-0.70;91.30;;;;;;5008292;28;20468;-80
2020/12/01 08:09:19;;;;;;;68.50;36.67;;;-0.70;91.30;;;;;;4999750;28;20697;-82
2020/12/01 08:11:49;;;;;;;71.33;38.23;;;-0.70;91.20;;;;;;4995617;28;20244;-82
2020/12/01 08:14:18;;;;;;;69.63;36.27;;;-0.60;91.20;;;;;;4999291;28;20215;-81
2020/12/01 08:17:00;;;;;;;71.47;37.93;;;-0.60;91.20;;;;;;5001527;28;20309;-79
2020/12/01 08:19:28;;;;;;;62.77;34.77;;;-0.50;91.20;;;;;;4996648;28;20210;-80
2020/12/01 08:21:57;;;;;;;64.77;35.43;;;-0.50;91.10;;;;;;4998458;28;20466;-80
2020/12/01 08:24:26;;;;;;;64.80;36.80;;;-0.50;91.10;;;;;;5003093;28;20671;-82
2020/12/01 08:27:05;;;;;;;66.90;35.20;;;-0.50;91.00;;;;;;5008606;28;20313;-81
2020/12/01 08:29:37;;;;;;;62.17;35.80;;;-0.40;91.10;;;;;;4999441;28;20209;-79
2020/12/01 08:32:19;;;;;;;64.47;34.83;;;-0.50;91.10;;;;;;4999947;28;20203;-81
2020/12/01 08:34:52;;;;;;;62.77;34.10;;;-0.30;91.00;;;;;;5000496;28;20653;-79
2020/12/01 08:37:34;;;;;;;64.90;33.90;;;-0.30;90.90;;;;;;5003323;28;20385;-82
2020/12/01 08:40:12;;;;;;;66.60;35.30;;;-0.30;90.90;;;;;;5003292;28;20204;-83
2020/12/01 08:42:55;;;;;;;64.20;33.47;;;-0.20;90.90;;;;;;5006070;28;20244;-84
2020/12/01 08:45:46;;;;;;;70.70;34.93;;;-0.20;90.80;;;;;;5012538;28;20544;-80
2020/12/01 08:48:41;;;;;;;61.57;33.53;;;-0.20;90.80;;;;;;5006917;28;20290;-79
2020/12/01 08:51:22;;;;;;;57.93;33.13;;;-0.10;90.80;;;;;;5011915;28;20623;-82
2020/12/01 08:53:54;;;;;;;61.67;33.00;;;-0.10;90.70;;;;;;5007958;28;20196;-81
2020/12/01 08:56:30;;;;;;;62.73;33.53;;;-0.10;90.60;;;;;;5005242;28;20199;-82
2020/12/01 08:59:03;;;;;;;53.73;33.13;;;0.00;90.60;;;;;;5000375;28;20612;-81
2020/12/01 09:01:41;;;;;;;59.07;32.27;;;0.00;90.60;;;;;;4996180;28;20470;-81
2020/12/01 09:04:21;;;;;;;59.47;33.23;;;0.00;90.50;;;;;;5002735;28;20228;-79
2020/12/01 09:06:51;;;;;;;59.77;32.47;;;0.10;90.50;;;;;;5005991;28;20474;-81
2020/12/01 09:09:30;;;;;;;57.10;32.63;;;0.10;90.50;;;;;;5004827;28;21122;-82
2020/12/01 09:12:17;;;;;;;61.60;34.13;;;0.10;90.50;;;;;;4999610;28;20203;-80
2020/12/01 09:15:11;;;;;;;57.53;32.13;;;0.10;90.20;;;;;;4997075;28;20242;-81
2020/12/01 09:17:48;;;;;;;59.10;30.70;;;0.20;90.30;;;;;;5011457;28;20281;-83
2020/12/01 09:20:47;;;;;;;59.17;30.80;;;0.20;90.40;;;;;;5019702;28;20209;-81
2020/12/01 09:23:17;;;;;;;51.83;29.93;;;0.20;90.20;;;;;;5019421;28;20320;-79
2020/12/01 09:25:47;;;;;;;55.40;30.43;;;0.20;90.20;;;;;;5000054;28;20217;-82
2020/12/01 09:28:22;;;;;;;53.50;28.63;;;0.20;90.20;;;;;;5002668;28;20630;-79
2020/12/01 09:30:50;;;;;;;53.40;29.17;;;0.30;90.30;;;;;;5009169;28;20203;-81
2020/12/01 09:33:21;;;;;;;55.90;29.33;;;0.30;90.10;;;;;;5013375;28;20530;-80
2020/12/01 09:35:49;;;;;;;54.03;29.43;;;0.30;90.10;;;;;;5003795;28;20292;-78
2020/12/01 09:38:17;;;;;;;57.67;30.80;;;0.30;90.10;;;;;;5010057;28;20408;-82
2020/12/01 09:40:48;;;;;;;56.27;31.27;;;0.40;90.20;;;;;;5014366;28;20238;-83
2020/12/01 09:43:20;;;;;;;52.30;28.87;;;0.40;90.20;;;;;;5004266;28;20236;-82
2020/12/01 09:45:58;;;;;;;50.40;29.27;;;0.40;90.30;;;;;;5003839;28;20632;-79
2020/12/01 09:48:31;;;;;;;52.00;29.00;;;0.50;90.20;;;;;;5003553;28;20213;-82
2020/12/01 09:50:58;;;;;;;53.40;28.83;;;0.50;90.10;;;;;;5000938;28;20220;-83
2020/12/01 09:53:43;;;;;;;47.10;27.33;;;0.60;90.00;;;;;;5007904;28;20288;-81
2020/12/01 09:56:38;;;;;;;50.90;28.10;;;0.60;90.00;;;;;;4996560;28;20204;-80
2020/12/01 10:07:49;;;;;;;44.60;26.10;;;0.70;88.90;;;;;;5012523;28;20540;-81
2020/12/01 10:10:40;;;;;;;44.27;24.10;;;0.80;88.90;;;;;;5014957;28;20437;-81
2020/12/01 10:13:26;;;;;;;45.07;25.20;;;0.90;88.70;;;;;;5015212;28;20221;-81
2020/12/01 10:35:22;;;;;;;35.13;22.77;;;1.20;87.60;;;;;;5001907;28;20210;-81
2020/12/01 10:37:54;;;;;;;39.90;22.57;;;1.20;87.40;;;;;;5008705;28;20344;-81
2020/12/01 10:40:23;;;;;;;40.40;21.87;;;1.20;87.50;;;;;;5010062;28;20232;-79
2020/12/01 10:42:51;;;;;;;41.73;23.17;;;1.20;87.00;;;;;;5009142;28;20249;-82
2020/12/01 10:45:19;;;;;;;43.63;23.90;;;1.30;87.40;;;;;;5019048;28;20218;-80
2020/12/01 10:47:47;;;;;;;42.27;24.30;;;1.30;87.30;;;;;;5021077;28;20552;-80
2020/12/01 10:50:16;;;;;;;41.47;23.20;;;1.30;87.40;;;;;;5012637;28;20217;-80
2020/12/01 10:52:44;;;;;;;40.47;23.23;;;1.40;87.60;;;;;;5004667;28;20300;-81
2020/12/01 10:55:21;;;;;;;40.40;22.83;;;1.40;87.50;;;;;;4999246;28;20203;-83
2020/12/01 10:57:49;;;;;;;36.33;21.23;;;1.40;87.00;;;;;;4998433;28;20221;-83
2020/12/01 11:00:17;;;;;;;39.23;21.80;;;1.40;86.70;;;;;;4997404;28;20199;-81
2020/12/01 11:02:45;;;;;;;37.03;20.47;;;1.60;86.60;;;;;;4997215;28;20223;-81
2020/12/01 11:05:17;;;;;;;35.10;21.77;;;1.50;86.60;;;;;;4994749;28;20989;-80
2020/12/01 11:07:45;;;;;;;32.80;19.80;;;1.70;86.60;;;;;;4995934;28;20732;-81
2020/12/01 11:10:12;;;;;;;36.20;21.67;;;1.50;86.40;;;;;;4993562;28;20406;-81
2020/12/01 11:12:42;;;;;;;35.73;20.13;;;1.50;86.60;;;;;;4992395;28;21043;-82
2020/12/01 11:15:10;;;;;;;34.53;19.57;;;1.60;86.10;;;;;;4991642;28;20206;-83
2020/12/01 11:17:38;;;;;;;32.87;19.90;;;1.80;85.90;;;;;;4988708;28;20850;-82
2020/12/01 11:20:07;;;;;;;35.07;20.17;;;1.70;85.90;;;;;;4993737;28;20442;-84
2020/12/01 11:22:35;;;;;;;35.50;20.83;;;1.70;85.60;;;;;;4998528;28;20360;-83
2020/12/01 11:25:03;;;;;;;35.17;20.37;;;1.70;85.80;;;;;;4995840;28;20221;-81
2020/12/01 11:27:31;;;;;;;32.10;19.27;;;1.70;85.60;;;;;;5001732;28;20323;-86
2020/12/01 11:30:00;;;;;;;36.40;20.47;;;1.70;85.50;;;;;;4988918;28;20316;-84
2020/12/01 11:32:27;;;;;;;33.50;18.90;;;1.70;85.60;;;;;;4986122;28;20212;-82
2020/12/01 11:34:55;;;;;;;34.60;19.67;;;1.80;85.30;;;;;;4968645;28;20461;-83
2020/12/01 11:37:22;;;;;;;35.20;19.90;;;1.80;85.10;;;;;;4966289;28;20203;-81
2020/12/01 11:39:50;;;;;;;30.53;18.53;;;1.80;85.10;;;;;;4980506;28;20218;-82
2020/12/01 11:42:18;;;;;;;33.70;18.73;;;1.90;85.30;;;;;;4984247;28;20396;-83
2020/12/01 11:44:46;;;;;;;35.00;19.77;;;2.00;85.40;;;;;;4980524;28;20235;-82
2020/12/01 11:47:15;;;;;;;37.00;18.47;;;1.90;85.40;;;;;;4988071;28;20780;-83
2020/12/01 11:49:42;;;;;;;33.70;19.27;;;1.90;85.30;;;;;;4982428;28;20218;-82
2020/12/01 11:52:11;;;;;;;30.83;18.07;;;2.00;85.40;;;;;;4982143;28;20195;-80
2020/12/01 11:54:41;;;;;;;28.63;17.13;;;2.10;84.60;;;;;;4986792;28;20219;-82
2020/12/01 11:57:10;;;;;;;33.50;18.40;;;2.10;84.40;;;;;;4987671;28;20212;-84
2020/12/01 11:59:38;;;;;;;30.97;19.03;;;2.10;84.10;;;;;;5003667;28;20204;-82
2020/12/01 12:02:06;;;;;;;30.63;17.70;;;2.10;84.20;;;;;;5001174;28;20211;-85
2020/12/01 12:04:44;;;;;;;31.07;18.27;;;2.10;84.10;;;;;;5013043;28;20556;-82
2020/12/01 12:07:12;;;;;;;30.97;17.47;;;2.00;84.20;;;;;;5003979;28;20315;-81
2020/12/01 12:09:39;;;;;;;29.47;16.60;;;2.10;83.80;;;;;;5003187;28;20201;-81
2020/12/01 12:12:07;;;;;;;29.33;16.90;;;2.10;83.70;;;;;;5005199;28;20258;-85
2020/12/01 12:14:35;;;;;;;30.47;17.97;;;2.10;83.90;;;;;;5007788;28;20210;-82
2020/12/01 12:17:03;;;;;;;26.37;16.33;;;2.10;83.70;;;;;;5009791;28;20187;-82
2020/12/01 12:19:31;;;;;;;29.77;17.07;;;2.10;83.70;;;;;;5004361;28;20195;-84
2020/12/01 12:22:00;;;;;;;28.13;17.03;;;2.10;83.70;;;;;;5011784;28;20183;-83
2020/12/01 12:24:28;;;;;;;27.80;17.23;;;2.10;83.60;;;;;;5009895;28;20212;-83
2020/12/01 12:26:55;;;;;;;27.60;16.60;;;2.10;83.60;;;;;;5011094;28;20266;-82
2020/12/01 12:29:23;;;;;;;29.40;16.10;;;2.10;83.70;;;;;;4989082;28;20211;-82
2020/12/01 12:31:50;;;;;;;25.87;15.97;;;2.10;83.70;;;;;;4989951;28;20323;-83
2020/12/01 12:34:19;;;;;;;29.57;18.63;;;2.10;83.50;;;;;;4992092;28;20404;-81
2020/12/01 12:36:46;;;;;;;25.77;15.70;;;2.10;83.60;;;;;;4984586;28;20843;-82
2020/12/01 12:39:15;;;;;;;26.30;15.60;;;2.10;83.60;;;;;;4986034;28;20201;-82
2020/12/01 12:41:43;;;;;;;28.37;15.93;;;2.10;83.60;;;;;;5003584;28;20208;-82
2020/12/01 12:44:13;;;;;;;26.07;15.33;;;2.10;83.20;;;;;;5002001;28;20314;-83
2020/12/01 12:46:41;;;;;;;25.60;15.20;;;2.10;82.90;;;;;;4995462;28;20210;-79
2020/12/01 12:49:09;;;;;;;24.07;14.37;;;2.30;82.80;;;;;;4997602;28;20196;-80
2020/12/01 12:51:36;;;;;;;24.17;15.23;;;2.10;82.70;;;;;;4994825;28;20218;-81
2020/12/01 12:54:05;;;;;;;31.03;15.40;;;2.10;82.90;;;;;;4984943;28;20211;-82
2020/12/01 12:56:34;;;;;;;24.43;14.83;;;2.10;83.10;;;;;;4977734;28;20693;-81
2020/12/01 12:59:02;;;;;;;24.23;15.00;;;2.10;83.00;;;;;;4985303;28;20224;-83
2020/12/01 13:01:30;;;;;;;25.47;14.00;;;2.10;82.80;;;;;;4980966;28;20526;-82
2020/12/01 13:03:58;;;;;;;23.03;13.97;;;2.20;82.30;;;;;;4996882;28;20223;-80
2020/12/01 13:06:26;;;;;;;25.70;15.63;;;2.20;82.20;;;;;;4994083;28;20453;-86
2020/12/01 13:09:01;;;;;;;23.03;14.50;;;2.20;82.10;;;;;;4989980;28;20206;-83
2020/12/01 13:11:29;;;;;;;22.63;15.20;;;2.10;82.20;;;;;;4987009;28;20335;-83
2020/12/01 13:13:57;;;;;;;25.27;14.90;;;2.10;82.30;;;;;;4995643;28;20204;-81
2020/12/01 13:16:25;;;;;;;26.13;14.93;;;2.10;82.50;;;;;;4982141;28;20364;-84
2020/12/01 13:18:53;;;;;;;26.10;14.77;;;2.00;82.30;;;;;;4983195;28;20202;-79
2020/12/01 13:21:20;;;;;;;21.17;13.70;;;2.00;82.30;;;;;;4984708;28;20213;-83
2020/12/01 13:23:49;;;;;;;22.97;13.87;;;2.00;82.20;;;;;;4983672;28;20238;-82
2020/12/01 13:26:19;;;;;;;20.50;13.50;;;2.00;82.20;;;;;;4989987;28;20214;-83
2020/12/01 13:28:47;;;;;;;23.00;13.60;;;1.90;82.00;;;;;;4982283;28;20271;-82